sensor_id;sensor_type;location;lat;lon;timestamp;P1;durP1;ratioP1;P2;durP2;ratioP2
48403;SDS011;34202;52.536;6.042;2022-08-23T00:00:00;12.60;;;6.00;;
48403;SDS011;34202;52.536;6.042;2022-08-23T00:05:00;11.80;;;5.60;;
48403;SDS011;34202;52.536;6.042;2022-08-23T00:10:00;8.10;;;5.60;;
48403;SDS011;34202;52.536;6.042;2022-08-23T00:15:01;10.90;;;4.80;;
48403;SDS011;34202;52.536;6.042;2022-08-23T00:20:02;12.20;;;5.90;;
48403;SDS011;34202;52.536;6.042;2022-08-23T00:25:08;9.30;;;5.70;;
48403;SDS011;34202;52.536;6.042;2022-08-23T00:30:11;10.60;;;6.10;;
48403;SDS011;34202;52.536;6.042;2022-08-23T00:35:13;17.00;;;7.10;;
48403;SDS011;34202;52.536;6.042;2022-08-23T00:40:17;10.80;;;6.60;;
48403;SDS011;34202;52.536;6.042;2022-08-23T00:45:19;10.40;;;6.60;;
48403;SDS011;34202;52.536;6.042;2022-08-23T00:50:53;11.10;;;6.20;;
48403;SDS011;34202;52.536;6.042;2022-08-23T00:55:55;17.30;;;7.00;;
48403;SDS011;34202;52.536;6.042;2022-08-23T01:00:59;14.90;;;7.50;;
48403;SDS011;34202;52.536;6.042;2022-08-23T01:11:31;10.20;;;6.70;;
48403;SDS011;34202;52.536;6.042;2022-08-23T01:16:37;11.90;;;8.90;;
48403;SDS011;34202;52.536;6.042;2022-08-23T01:21:46;15.90;;;8.00;;
48403;SDS011;34202;52.536;6.042;2022-08-23T01:26:58;9.00;;;8.10;;
48403;SDS011;34202;52.536;6.042;2022-08-23T01:31:59;17.70;;;7.90;;
48403;SDS011;34202;52.536;6.042;2022-08-23T01:37:00;12.80;;;8.50;;
48403;SDS011;34202;52.536;6.042;2022-08-23T01:42:00;13.50;;;8.30;;
48403;SDS011;34202;52.536;6.042;2022-08-23T01:47:01;12.40;;;9.00;;
48403;SDS011;34202;52.536;6.042;2022-08-23T01:52:02;13.90;;;9.30;;
48403;SDS011;34202;52.536;6.042;2022-08-23T01:57:04;16.60;;;9.30;;
48403;SDS011;34202;52.536;6.042;2022-08-23T02:02:05;14.90;;;9.60;;
48403;SDS011;34202;52.536;6.042;2022-08-23T02:07:05;12.50;;;8.20;;
48403;SDS011;34202;52.536;6.042;2022-08-23T02:12:06;15.70;;;10.40;;
48403;SDS011;34202;52.536;6.042;2022-08-23T02:17:06;15.20;;;9.20;;
48403;SDS011;34202;52.536;6.042;2022-08-23T02:22:07;15.30;;;10.00;;
48403;SDS011;34202;52.536;6.042;2022-08-23T02:27:08;14.20;;;9.80;;
48403;SDS011;34202;52.536;6.042;2022-08-23T02:32:09;12.60;;;9.30;;
48403;SDS011;34202;52.536;6.042;2022-08-23T02:37:11;12.30;;;9.20;;
48403;SDS011;34202;52.536;6.042;2022-08-23T02:42:12;13.40;;;9.70;;
48403;SDS011;34202;52.536;6.042;2022-08-23T02:47:14;17.40;;;9.50;;
48403;SDS011;34202;52.536;6.042;2022-08-23T02:52:14;16.70;;;8.50;;
48403;SDS011;34202;52.536;6.042;2022-08-23T02:57:14;10.50;;;8.80;;
48403;SDS011;34202;52.536;6.042;2022-08-23T03:02:15;17.10;;;9.80;;
48403;SDS011;34202;52.536;6.042;2022-08-23T03:07:15;15.40;;;10.80;;
48403;SDS011;34202;52.536;6.042;2022-08-23T03:12:17;14.10;;;10.30;;
48403;SDS011;34202;52.536;6.042;2022-08-23T03:17:17;14.80;;;9.90;;
48403;SDS011;34202;52.536;6.042;2022-08-23T03:22:19;20.40;;;10.10;;
48403;SDS011;34202;52.536;6.042;2022-08-23T03:27:22;15.80;;;10.60;;
48403;SDS011;34202;52.536;6.042;2022-08-23T03:32:22;13.10;;;9.50;;
48403;SDS011;34202;52.536;6.042;2022-08-23T03:37:23;14.30;;;10.60;;
48403;SDS011;34202;52.536;6.042;2022-08-23T03:42:23;16.10;;;9.70;;
48403;SDS011;34202;52.536;6.042;2022-08-23T03:47:24;15.40;;;9.70;;
48403;SDS011;34202;52.536;6.042;2022-08-23T03:52:25;13.40;;;9.10;;
48403;SDS011;34202;52.536;6.042;2022-08-23T03:57:25;13.10;;;9.80;;
48403;SDS011;34202;52.536;6.042;2022-08-23T04:02:25;12.50;;;9.30;;
48403;SDS011;34202;52.536;6.042;2022-08-23T04:07:26;12.50;;;9.70;;
48403;SDS011;34202;52.536;6.042;2022-08-23T04:12:27;10.00;;;8.70;;
48403;SDS011;34202;52.536;6.042;2022-08-23T04:17:27;13.30;;;9.00;;
48403;SDS011;34202;52.536;6.042;2022-08-23T04:22:28;12.10;;;7.80;;
48403;SDS011;34202;52.536;6.042;2022-08-23T04:27:29;15.10;;;9.10;;
48403;SDS011;34202;52.536;6.042;2022-08-23T04:32:30;9.70;;;8.70;;
48403;SDS011;34202;52.536;6.042;2022-08-23T04:37:31;14.70;;;9.20;;
48403;SDS011;34202;52.536;6.042;2022-08-23T04:42:31;10.50;;;9.50;;
48403;SDS011;34202;52.536;6.042;2022-08-23T04:47:32;10.70;;;9.00;;
48403;SDS011;34202;52.536;6.042;2022-08-23T04:52:33;14.20;;;10.10;;
48403;SDS011;34202;52.536;6.042;2022-08-23T04:57:34;12.00;;;10.50;;
48403;SDS011;34202;52.536;6.042;2022-08-23T05:02:34;10.50;;;8.00;;
48403;SDS011;34202;52.536;6.042;2022-08-23T05:07:35;12.20;;;10.10;;
48403;SDS011;34202;52.536;6.042;2022-08-23T05:12:36;10.90;;;8.90;;
48403;SDS011;34202;52.536;6.042;2022-08-23T05:17:38;15.20;;;10.30;;
48403;SDS011;34202;52.536;6.042;2022-08-23T05:22:39;11.90;;;9.90;;
48403;SDS011;34202;52.536;6.042;2022-08-23T05:27:41;15.40;;;10.30;;
48403;SDS011;34202;52.536;6.042;2022-08-23T05:32:42;13.20;;;10.60;;
48403;SDS011;34202;52.536;6.042;2022-08-23T05:37:42;15.00;;;10.20;;
48403;SDS011;34202;52.536;6.042;2022-08-23T05:42:43;16.10;;;11.00;;
48403;SDS011;34202;52.536;6.042;2022-08-23T05:47:43;14.80;;;11.10;;
48403;SDS011;34202;52.536;6.042;2022-08-23T05:52:45;12.40;;;10.70;;
48403;SDS011;34202;52.536;6.042;2022-08-23T05:57:46;12.70;;;11.30;;
48403;SDS011;34202;52.536;6.042;2022-08-23T06:02:46;15.80;;;10.90;;
48403;SDS011;34202;52.536;6.042;2022-08-23T06:07:48;13.60;;;12.00;;
48403;SDS011;34202;52.536;6.042;2022-08-23T06:12:49;11.80;;;9.70;;
48403;SDS011;34202;52.536;6.042;2022-08-23T06:17:49;17.30;;;10.80;;
48403;SDS011;34202;52.536;6.042;2022-08-23T06:22:50;13.80;;;11.10;;
48403;SDS011;34202;52.536;6.042;2022-08-23T06:27:50;18.70;;;13.10;;
48403;SDS011;34202;52.536;6.042;2022-08-23T06:32:51;14.90;;;11.50;;
48403;SDS011;34202;52.536;6.042;2022-08-23T06:37:51;14.50;;;11.10;;
48403;SDS011;34202;52.536;6.042;2022-08-23T06:42:52;14.60;;;11.20;;
48403;SDS011;34202;52.536;6.042;2022-08-23T06:47:53;12.00;;;10.40;;
48403;SDS011;34202;52.536;6.042;2022-08-23T06:52:54;17.70;;;12.80;;
48403;SDS011;34202;52.536;6.042;2022-08-23T06:57:55;15.00;;;10.80;;
48403;SDS011;34202;52.536;6.042;2022-08-23T07:02:55;12.80;;;10.40;;
48403;SDS011;34202;52.536;6.042;2022-08-23T07:07:56;19.90;;;11.90;;
48403;SDS011;34202;52.536;6.042;2022-08-23T07:12:56;15.80;;;12.20;;
48403;SDS011;34202;52.536;6.042;2022-08-23T07:17:57;14.50;;;10.30;;
48403;SDS011;34202;52.536;6.042;2022-08-23T07:22:57;16.50;;;10.70;;
48403;SDS011;34202;52.536;6.042;2022-08-23T07:27:57;14.00;;;10.30;;
48403;SDS011;34202;52.536;6.042;2022-08-23T07:32:58;15.60;;;10.40;;
48403;SDS011;34202;52.536;6.042;2022-08-23T07:37:58;26.20;;;11.80;;
48403;SDS011;34202;52.536;6.042;2022-08-23T07:42:59;15.30;;;11.00;;
48403;SDS011;34202;52.536;6.042;2022-08-23T07:48:00;14.10;;;10.40;;
48403;SDS011;34202;52.536;6.042;2022-08-23T07:53:01;13.30;;;9.90;;
48403;SDS011;34202;52.536;6.042;2022-08-23T07:58:02;13.00;;;11.00;;
48403;SDS011;34202;52.536;6.042;2022-08-23T08:03:02;12.40;;;10.70;;
48403;SDS011;34202;52.536;6.042;2022-08-23T08:08:03;9.10;;;8.20;;
48403;SDS011;34202;52.536;6.042;2022-08-23T08:13:04;11.60;;;9.50;;
48403;SDS011;34202;52.536;6.042;2022-08-23T08:18:06;11.60;;;8.70;;
48403;SDS011;34202;52.536;6.042;2022-08-23T08:23:06;12.30;;;8.50;;
48403;SDS011;34202;52.536;6.042;2022-08-23T08:28:07;11.70;;;8.40;;
48403;SDS011;34202;52.536;6.042;2022-08-23T08:33:07;11.90;;;7.90;;
48403;SDS011;34202;52.536;6.042;2022-08-23T08:38:07;11.40;;;9.10;;
48403;SDS011;34202;52.536;6.042;2022-08-23T08:43:23;10.70;;;8.30;;
48403;SDS011;34202;52.536;6.042;2022-08-23T08:48:55;10.20;;;7.40;;
48403;SDS011;34202;52.536;6.042;2022-08-23T08:54:02;12.00;;;7.50;;
48403;SDS011;34202;52.536;6.042;2022-08-23T08:59:10;13.30;;;7.60;;
48403;SDS011;34202;52.536;6.042;2022-08-23T09:04:18;12.70;;;7.00;;
48403;SDS011;34202;52.536;6.042;2022-08-23T09:14:36;10.90;;;7.40;;
48403;SDS011;34202;52.536;6.042;2022-08-23T09:19:47;10.10;;;6.10;;
48403;SDS011;34202;52.536;6.042;2022-08-23T09:24:50;9.20;;;6.10;;
48403;SDS011;34202;52.536;6.042;2022-08-23T09:29:54;6.90;;;5.40;;
48403;SDS011;34202;52.536;6.042;2022-08-23T09:40:14;8.80;;;4.40;;
48403;SDS011;34202;52.536;6.042;2022-08-23T09:45:33;8.60;;;4.70;;
48403;SDS011;34202;52.536;6.042;2022-08-23T09:50:37;7.50;;;5.20;;
48403;SDS011;34202;52.536;6.042;2022-08-23T09:55:50;10.00;;;4.80;;
48403;SDS011;34202;52.536;6.042;2022-08-23T10:06:27;11.10;;;4.10;;
48403;SDS011;34202;52.536;6.042;2022-08-23T10:11:31;6.60;;;3.80;;
48403;SDS011;34202;52.536;6.042;2022-08-23T10:22:14;9.70;;;4.30;;
48403;SDS011;34202;52.536;6.042;2022-08-23T10:33:19;6.40;;;3.60;;
48403;SDS011;34202;52.536;6.042;2022-08-23T10:39:07;3.80;;;2.00;;
48403;SDS011;34202;52.536;6.042;2022-08-23T10:49:38;11.60;;;3.80;;
48403;SDS011;34202;52.536;6.042;2022-08-23T10:54:42;7.50;;;3.30;;
48403;SDS011;34202;52.536;6.042;2022-08-23T10:59:58;7.10;;;2.70;;
48403;SDS011;34202;52.536;6.042;2022-08-23T11:05:20;8.30;;;4.00;;
48403;SDS011;34202;52.536;6.042;2022-08-23T11:10:32;5.90;;;2.90;;
48403;SDS011;34202;52.536;6.042;2022-08-23T11:21:39;12.10;;;3.50;;
48403;SDS011;34202;52.536;6.042;2022-08-23T11:42:18;4.30;;;2.20;;
48403;SDS011;34202;52.536;6.042;2022-08-23T11:52:49;5.40;;;2.00;;
48403;SDS011;34202;52.536;6.042;2022-08-23T11:58:02;7.80;;;2.30;;
48403;SDS011;34202;52.536;6.042;2022-08-23T12:03:26;5.70;;;2.10;;
48403;SDS011;34202;52.536;6.042;2022-08-23T12:08:50;10.50;;;2.30;;
48403;SDS011;34202;52.536;6.042;2022-08-23T12:14:30;4.50;;;2.30;;
48403;SDS011;34202;52.536;6.042;2022-08-23T12:19:39;17.60;;;2.70;;
48403;SDS011;34202;52.536;6.042;2022-08-23T12:24:43;8.80;;;3.40;;
48403;SDS011;34202;52.536;6.042;2022-08-23T12:29:57;7.40;;;3.20;;
48403;SDS011;34202;52.536;6.042;2022-08-23T12:40:38;4.90;;;3.00;;
48403;SDS011;34202;52.536;6.042;2022-08-23T12:45:47;7.50;;;2.90;;
48403;SDS011;34202;52.536;6.042;2022-08-23T12:50:59;9.00;;;3.40;;
48403;SDS011;34202;52.536;6.042;2022-08-23T12:56:07;10.00;;;3.00;;
48403;SDS011;34202;52.536;6.042;2022-08-23T13:01:21;10.10;;;3.00;;
48403;SDS011;34202;52.536;6.042;2022-08-23T13:06:25;6.20;;;3.90;;
48403;SDS011;34202;52.536;6.042;2022-08-23T13:11:30;10.90;;;4.40;;
48403;SDS011;34202;52.536;6.042;2022-08-23T13:21:35;16.50;;;6.10;;
48403;SDS011;34202;52.536;6.042;2022-08-23T13:26:37;10.60;;;3.80;;
48403;SDS011;34202;52.536;6.042;2022-08-23T13:36:51;9.90;;;3.90;;
48403;SDS011;34202;52.536;6.042;2022-08-23T13:41:52;8.50;;;4.20;;
48403;SDS011;34202;52.536;6.042;2022-08-23T13:46:53;11.70;;;4.40;;
48403;SDS011;34202;52.536;6.042;2022-08-23T13:57:01;10.40;;;3.60;;
48403;SDS011;34202;52.536;6.042;2022-08-23T14:02:09;8.40;;;3.10;;
48403;SDS011;34202;52.536;6.042;2022-08-23T14:07:13;6.50;;;2.80;;
48403;SDS011;34202;52.536;6.042;2022-08-23T14:12:15;5.00;;;2.90;;
48403;SDS011;34202;52.536;6.042;2022-08-23T14:17:19;9.70;;;2.70;;
48403;SDS011;34202;52.536;6.042;2022-08-23T14:22:20;6.50;;;2.30;;
48403;SDS011;34202;52.536;6.042;2022-08-23T14:27:20;5.40;;;2.20;;
48403;SDS011;34202;52.536;6.042;2022-08-23T14:32:21;5.90;;;2.50;;
48403;SDS011;34202;52.536;6.042;2022-08-23T14:37:21;5.80;;;2.40;;
48403;SDS011;34202;52.536;6.042;2022-08-23T14:42:22;8.30;;;2.70;;
48403;SDS011;34202;52.536;6.042;2022-08-23T14:47:22;3.10;;;2.10;;
48403;SDS011;34202;52.536;6.042;2022-08-23T14:52:22;6.00;;;2.20;;
48403;SDS011;34202;52.536;6.042;2022-08-23T14:57:23;3.70;;;2.10;;
48403;SDS011;34202;52.536;6.042;2022-08-23T15:02:24;4.00;;;2.00;;
48403;SDS011;34202;52.536;6.042;2022-08-23T15:07:25;6.60;;;2.40;;
48403;SDS011;34202;52.536;6.042;2022-08-23T15:12:25;6.90;;;3.10;;
48403;SDS011;34202;52.536;6.042;2022-08-23T15:17:26;7.50;;;2.80;;
48403;SDS011;34202;52.536;6.042;2022-08-23T15:22:26;6.30;;;2.90;;
48403;SDS011;34202;52.536;6.042;2022-08-23T15:27:26;4.50;;;2.20;;
48403;SDS011;34202;52.536;6.042;2022-08-23T15:32:29;5.30;;;2.20;;
48403;SDS011;34202;52.536;6.042;2022-08-23T15:37:29;8.00;;;2.80;;
48403;SDS011;34202;52.536;6.042;2022-08-23T15:42:30;8.30;;;3.30;;
48403;SDS011;34202;52.536;6.042;2022-08-23T15:47:33;8.50;;;2.80;;
48403;SDS011;34202;52.536;6.042;2022-08-23T15:52:42;3.80;;;2.60;;
48403;SDS011;34202;52.536;6.042;2022-08-23T15:57:46;6.60;;;2.70;;
48403;SDS011;34202;52.536;6.042;2022-08-23T16:02:49;6.80;;;3.20;;
48403;SDS011;34202;52.536;6.042;2022-08-23T16:07:52;4.50;;;2.10;;
48403;SDS011;34202;52.536;6.042;2022-08-23T16:12:55;8.60;;;3.00;;
48403;SDS011;34202;52.536;6.042;2022-08-23T16:17:56;4.50;;;2.30;;
48403;SDS011;34202;52.536;6.042;2022-08-23T16:22:56;9.10;;;2.30;;
48403;SDS011;34202;52.536;6.042;2022-08-23T16:27:57;6.20;;;1.90;;
48403;SDS011;34202;52.536;6.042;2022-08-23T16:32:58;3.20;;;1.80;;
48403;SDS011;34202;52.536;6.042;2022-08-23T16:37:58;4.90;;;1.90;;
48403;SDS011;34202;52.536;6.042;2022-08-23T16:42:59;8.40;;;2.10;;
48403;SDS011;34202;52.536;6.042;2022-08-23T16:47:59;7.60;;;1.70;;
48403;SDS011;34202;52.536;6.042;2022-08-23T16:52:59;6.90;;;2.00;;
48403;SDS011;34202;52.536;6.042;2022-08-23T16:58:00;4.20;;;2.30;;
48403;SDS011;34202;52.536;6.042;2022-08-23T17:03:02;3.90;;;1.90;;
48403;SDS011;34202;52.536;6.042;2022-08-23T17:08:03;5.50;;;2.20;;
48403;SDS011;34202;52.536;6.042;2022-08-23T17:17:02;10.20;;;3.10;;
48403;SDS011;34202;52.536;6.042;2022-08-23T17:22:03;4.80;;;2.30;;
48403;SDS011;34202;52.536;6.042;2022-08-23T17:27:03;5.10;;;2.30;;
48403;SDS011;34202;52.536;6.042;2022-08-23T17:32:04;4.10;;;2.30;;
48403;SDS011;34202;52.536;6.042;2022-08-23T17:37:13;8.60;;;2.10;;
48403;SDS011;34202;52.536;6.042;2022-08-23T17:42:16;4.10;;;2.50;;
48403;SDS011;34202;52.536;6.042;2022-08-23T17:47:17;5.30;;;3.10;;
48403;SDS011;34202;52.536;6.042;2022-08-23T17:52:18;9.10;;;3.20;;
48403;SDS011;34202;52.536;6.042;2022-08-23T17:57:18;6.00;;;3.50;;
48403;SDS011;34202;52.536;6.042;2022-08-23T18:02:20;12.40;;;4.00;;
48403;SDS011;34202;52.536;6.042;2022-08-23T18:07:20;6.90;;;4.00;;
48403;SDS011;34202;52.536;6.042;2022-08-23T18:12:21;12.30;;;3.90;;
48403;SDS011;34202;52.536;6.042;2022-08-23T18:17:22;7.30;;;3.90;;
48403;SDS011;34202;52.536;6.042;2022-08-23T18:22:23;12.40;;;4.80;;
48403;SDS011;34202;52.536;6.042;2022-08-23T18:27:24;8.80;;;4.50;;
48403;SDS011;34202;52.536;6.042;2022-08-23T18:32:43;8.90;;;4.70;;
48403;SDS011;34202;52.536;6.042;2022-08-23T18:37:43;7.60;;;5.10;;
48403;SDS011;34202;52.536;6.042;2022-08-23T18:42:44;7.90;;;4.60;;
48403;SDS011;34202;52.536;6.042;2022-08-23T18:47:45;8.40;;;5.10;;
48403;SDS011;34202;52.536;6.042;2022-08-23T18:52:45;14.10;;;5.30;;
48403;SDS011;34202;52.536;6.042;2022-08-23T18:57:45;10.80;;;5.20;;
48403;SDS011;34202;52.536;6.042;2022-08-23T19:02:46;12.50;;;6.20;;
48403;SDS011;34202;52.536;6.042;2022-08-23T19:07:47;9.80;;;5.80;;
48403;SDS011;34202;52.536;6.042;2022-08-23T19:12:47;12.90;;;6.80;;
48403;SDS011;34202;52.536;6.042;2022-08-23T19:17:48;9.10;;;7.00;;
48403;SDS011;34202;52.536;6.042;2022-08-23T19:22:48;9.10;;;6.70;;
48403;SDS011;34202;52.536;6.042;2022-08-23T19:27:49;10.20;;;6.20;;
48403;SDS011;34202;52.536;6.042;2022-08-23T19:32:49;11.00;;;7.00;;
48403;SDS011;34202;52.536;6.042;2022-08-23T19:37:49;10.50;;;6.80;;
48403;SDS011;34202;52.536;6.042;2022-08-23T19:42:50;9.90;;;8.10;;
48403;SDS011;34202;52.536;6.042;2022-08-23T19:47:51;8.20;;;5.60;;
48403;SDS011;34202;52.536;6.042;2022-08-23T19:52:51;10.00;;;5.40;;
48403;SDS011;34202;52.536;6.042;2022-08-23T19:57:53;7.50;;;5.50;;
48403;SDS011;34202;52.536;6.042;2022-08-23T20:02:54;6.10;;;5.50;;
48403;SDS011;34202;52.536;6.042;2022-08-23T20:07:55;7.20;;;5.50;;
48403;SDS011;34202;52.536;6.042;2022-08-23T20:12:55;8.90;;;5.20;;
48403;SDS011;34202;52.536;6.042;2022-08-23T20:17:56;8.00;;;4.90;;
48403;SDS011;34202;52.536;6.042;2022-08-23T20:22:57;9.50;;;5.80;;
48403;SDS011;34202;52.536;6.042;2022-08-23T20:28:16;7.70;;;5.70;;
48403;SDS011;34202;52.536;6.042;2022-08-23T20:33:17;7.60;;;5.40;;
48403;SDS011;34202;52.536;6.042;2022-08-23T20:38:17;6.60;;;5.30;;
48403;SDS011;34202;52.536;6.042;2022-08-23T20:43:17;6.40;;;5.60;;
48403;SDS011;34202;52.536;6.042;2022-08-23T20:48:18;8.10;;;6.10;;
48403;SDS011;34202;52.536;6.042;2022-08-23T20:53:18;9.70;;;5.80;;
48403;SDS011;34202;52.536;6.042;2022-08-23T20:58:18;8.30;;;6.60;;
48403;SDS011;34202;52.536;6.042;2022-08-23T21:03:19;7.00;;;5.80;;
48403;SDS011;34202;52.536;6.042;2022-08-23T21:08:20;7.50;;;6.70;;
48403;SDS011;34202;52.536;6.042;2022-08-23T21:13:20;7.90;;;6.30;;
48403;SDS011;34202;52.536;6.042;2022-08-23T21:18:20;8.90;;;5.80;;
48403;SDS011;34202;52.536;6.042;2022-08-23T21:23:21;8.30;;;6.10;;
48403;SDS011;34202;52.536;6.042;2022-08-23T21:28:23;9.10;;;5.90;;
48403;SDS011;34202;52.536;6.042;2022-08-23T21:33:25;11.30;;;6.70;;
48403;SDS011;34202;52.536;6.042;2022-08-23T21:38:25;11.00;;;6.20;;
48403;SDS011;34202;52.536;6.042;2022-08-23T21:43:27;7.10;;;4.60;;
48403;SDS011;34202;52.536;6.042;2022-08-23T21:48:29;11.50;;;7.20;;
48403;SDS011;34202;52.536;6.042;2022-08-23T21:53:31;10.50;;;7.30;;
48403;SDS011;34202;52.536;6.042;2022-08-23T21:58:31;7.70;;;6.70;;
48403;SDS011;34202;52.536;6.042;2022-08-23T22:03:31;7.30;;;6.20;;
48403;SDS011;34202;52.536;6.042;2022-08-23T22:08:32;12.30;;;8.90;;
48403;SDS011;34202;52.536;6.042;2022-08-23T22:13:32;12.30;;;9.20;;
48403;SDS011;34202;52.536;6.042;2022-08-23T22:18:34;12.10;;;10.30;;
48403;SDS011;34202;52.536;6.042;2022-08-23T22:23:35;11.50;;;8.80;;
48403;SDS011;34202;52.536;6.042;2022-08-23T22:28:36;14.00;;;9.50;;
48403;SDS011;34202;52.536;6.042;2022-08-23T22:33:36;15.80;;;12.40;;
48403;SDS011;34202;52.536;6.042;2022-08-23T22:38:37;17.10;;;12.50;;
48403;SDS011;34202;52.536;6.042;2022-08-23T22:43:38;13.60;;;11.70;;
48403;SDS011;34202;52.536;6.042;2022-08-23T22:48:39;17.60;;;14.00;;
48403;SDS011;34202;52.536;6.042;2022-08-23T22:53:41;13.80;;;11.90;;
48403;SDS011;34202;52.536;6.042;2022-08-23T22:58:44;18.70;;;13.00;;
48403;SDS011;34202;52.536;6.042;2022-08-23T23:03:45;18.30;;;13.50;;
48403;SDS011;34202;52.536;6.042;2022-08-23T23:08:45;11.80;;;10.40;;
48403;SDS011;34202;52.536;6.042;2022-08-23T23:13:47;7.70;;;7.00;;
48403;SDS011;34202;52.536;6.042;2022-08-23T23:18:48;11.70;;;10.60;;
48403;SDS011;34202;52.536;6.042;2022-08-23T23:24:08;12.30;;;11.10;;
48403;SDS011;34202;52.536;6.042;2022-08-23T23:29:10;14.00;;;12.50;;
48403;SDS011;34202;52.536;6.042;2022-08-23T23:34:12;13.90;;;12.50;;
48403;SDS011;34202;52.536;6.042;2022-08-23T23:39:13;13.70;;;12.40;;
48403;SDS011;34202;52.536;6.042;2022-08-23T23:44:14;18.80;;;13.50;;
48403;SDS011;34202;52.536;6.042;2022-08-23T23:49:15;18.90;;;14.00;;
48403;SDS011;34202;52.536;6.042;2022-08-23T23:54:16;16.10;;;14.40;;
48403;SDS011;34202;52.536;6.042;2022-08-23T23:59:16;17.00;;;15.20;;
